sensor_id;sensor_type;location;lat;lon;timestamp;temperature;humidity
10848;DHT22;5477;48.806;9.154;2022-10-16T00:00:57;16.20;99.90
10848;DHT22;5477;48.806;9.154;2022-10-16T00:03:25;16.10;99.90
10848;DHT22;5477;48.806;9.154;2022-10-16T00:05:59;16.10;99.90
10848;DHT22;5477;48.806;9.154;2022-10-16T00:08:28;16.00;99.90
10848;DHT22;5477;48.806;9.154;2022-10-16T00:11:01;16.00;99.90
10848;DHT22;5477;48.806;9.154;2022-10-16T00:13:30;16.00;99.90
10848;DHT22;5477;48.806;9.154;2022-10-16T00:15:59;16.00;99.90
10848;DHT22;5477;48.806;9.154;2022-10-16T00:18:28;16.00;99.90
10848;DHT22;5477;48.806;9.154;2022-10-16T00:21:02;16.00;99.90
10848;DHT22;5477;48.806;9.154;2022-10-16T00:23:30;15.90;99.90
10848;DHT22;5477;48.806;9.154;2022-10-16T00:26:01;15.90;99.90
10848;DHT22;5477;48.806;9.154;2022-10-16T00:28:29;15.90;99.90
10848;DHT22;5477;48.806;9.154;2022-10-16T00:30:58;15.80;99.90
10848;DHT22;5477;48.806;9.154;2022-10-16T00:33:25;15.80;99.90
10848;DHT22;5477;48.806;9.154;2022-10-16T00:35:53;15.80;99.90
10848;DHT22;5477;48.806;9.154;2022-10-16T00:38:21;15.80;99.90
10848;DHT22;5477;48.806;9.154;2022-10-16T00:40:49;15.80;99.90
10848;DHT22;5477;48.806;9.154;2022-10-16T00:46:16;15.70;99.90
10848;DHT22;5477;48.806;9.154;2022-10-16T00:48:48;15.70;99.90
10848;DHT22;5477;48.806;9.154;2022-10-16T00:51:19;15.70;99.90
10848;DHT22;5477;48.806;9.154;2022-10-16T00:53:49;15.60;99.90
10848;DHT22;5477;48.806;9.154;2022-10-16T00:56:18;15.50;99.90
10848;DHT22;5477;48.806;9.154;2022-10-16T00:58:46;15.50;99.90
10848;DHT22;5477;48.806;9.154;2022-10-16T01:01:15;15.50;99.90
10848;DHT22;5477;48.806;9.154;2022-10-16T01:03:43;15.40;99.90
10848;DHT22;5477;48.806;9.154;2022-10-16T01:06:28;15.40;99.90
10848;DHT22;5477;48.806;9.154;2022-10-16T01:09:11;15.40;99.90
10848;DHT22;5477;48.806;9.154;2022-10-16T01:11:45;15.50;99.90
10848;DHT22;5477;48.806;9.154;2022-10-16T01:14:22;15.50;99.90
10848;DHT22;5477;48.806;9.154;2022-10-16T01:16:59;15.40;99.90
10848;DHT22;5477;48.806;9.154;2022-10-16T01:19:44;15.40;99.90
10848;DHT22;5477;48.806;9.154;2022-10-16T01:22:15;15.40;99.90
10848;DHT22;5477;48.806;9.154;2022-10-16T01:24:47;15.40;99.90
10848;DHT22;5477;48.806;9.154;2022-10-16T01:27:21;15.50;99.90
10848;DHT22;5477;48.806;9.154;2022-10-16T01:29:54;15.50;99.90
10848;DHT22;5477;48.806;9.154;2022-10-16T01:32:30;15.50;99.90
10848;DHT22;5477;48.806;9.154;2022-10-16T01:35:03;15.60;99.90
10848;DHT22;5477;48.806;9.154;2022-10-16T01:37:36;15.60;99.90
10848;DHT22;5477;48.806;9.154;2022-10-16T01:40:09;15.70;99.90
10848;DHT22;5477;48.806;9.154;2022-10-16T01:42:41;15.70;99.90
10848;DHT22;5477;48.806;9.154;2022-10-16T01:45:13;15.60;99.90
10848;DHT22;5477;48.806;9.154;2022-10-16T01:47:42;15.70;99.90
10848;DHT22;5477;48.806;9.154;2022-10-16T01:50:12;15.70;99.90
10848;DHT22;5477;48.806;9.154;2022-10-16T01:52:45;15.70;99.90
10848;DHT22;5477;48.806;9.154;2022-10-16T01:55:16;15.80;99.90
10848;DHT22;5477;48.806;9.154;2022-10-16T01:57:48;15.80;99.90
10848;DHT22;5477;48.806;9.154;2022-10-16T02:00:19;15.90;99.90
10848;DHT22;5477;48.806;9.154;2022-10-16T02:02:51;16.00;99.90
10848;DHT22;5477;48.806;9.154;2022-10-16T02:05:25;16.00;99.90
10848;DHT22;5477;48.806;9.154;2022-10-16T02:07:55;16.10;99.90
10848;DHT22;5477;48.806;9.154;2022-10-16T02:10:26;16.00;99.90
10848;DHT22;5477;48.806;9.154;2022-10-16T02:13:03;15.90;99.90
10848;DHT22;5477;48.806;9.154;2022-10-16T02:15:32;15.90;99.90
10848;DHT22;5477;48.806;9.154;2022-10-16T02:18:01;15.90;99.90
10848;DHT22;5477;48.806;9.154;2022-10-16T02:20:32;15.80;99.90
10848;DHT22;5477;48.806;9.154;2022-10-16T02:23:03;15.70;99.90
10848;DHT22;5477;48.806;9.154;2022-10-16T02:25:34;15.70;99.90
10848;DHT22;5477;48.806;9.154;2022-10-16T02:28:08;15.70;99.90
10848;DHT22;5477;48.806;9.154;2022-10-16T02:30:42;15.70;99.90
10848;DHT22;5477;48.806;9.154;2022-10-16T02:33:13;15.70;99.90
10848;DHT22;5477;48.806;9.154;2022-10-16T02:35:43;15.70;99.90
10848;DHT22;5477;48.806;9.154;2022-10-16T02:38:12;15.70;99.90
10848;DHT22;5477;48.806;9.154;2022-10-16T02:40:42;15.70;99.90
10848;DHT22;5477;48.806;9.154;2022-10-16T02:43:11;15.60;99.90
10848;DHT22;5477;48.806;9.154;2022-10-16T02:45:40;15.60;99.90
10848;DHT22;5477;48.806;9.154;2022-10-16T02:48:07;15.70;99.90
10848;DHT22;5477;48.806;9.154;2022-10-16T02:50:36;15.70;99.90
10848;DHT22;5477;48.806;9.154;2022-10-16T02:53:03;15.70;99.90
10848;DHT22;5477;48.806;9.154;2022-10-16T02:55:31;15.80;99.90
10848;DHT22;5477;48.806;9.154;2022-10-16T02:57:59;15.80;99.90
10848;DHT22;5477;48.806;9.154;2022-10-16T03:00:28;15.90;99.90
10848;DHT22;5477;48.806;9.154;2022-10-16T03:02:56;15.90;99.90
10848;DHT22;5477;48.806;9.154;2022-10-16T03:05:24;15.90;99.90
10848;DHT22;5477;48.806;9.154;2022-10-16T03:07:52;15.90;99.90
10848;DHT22;5477;48.806;9.154;2022-10-16T03:10:20;15.90;99.90
10848;DHT22;5477;48.806;9.154;2022-10-16T03:12:48;15.90;99.90
10848;DHT22;5477;48.806;9.154;2022-10-16T03:15:16;15.80;99.90
10848;DHT22;5477;48.806;9.154;2022-10-16T03:17:45;15.80;99.90
10848;DHT22;5477;48.806;9.154;2022-10-16T03:20:13;15.90;99.90
10848;DHT22;5477;48.806;9.154;2022-10-16T03:22:41;15.90;99.90
10848;DHT22;5477;48.806;9.154;2022-10-16T03:25:09;15.90;99.90
10848;DHT22;5477;48.806;9.154;2022-10-16T03:27:37;15.90;99.90
10848;DHT22;5477;48.806;9.154;2022-10-16T03:30:06;15.90;99.90
10848;DHT22;5477;48.806;9.154;2022-10-16T03:32:34;15.90;99.90
10848;DHT22;5477;48.806;9.154;2022-10-16T03:35:08;15.90;99.90
10848;DHT22;5477;48.806;9.154;2022-10-16T03:37:36;15.90;99.90
10848;DHT22;5477;48.806;9.154;2022-10-16T03:40:05;15.90;99.90
10848;DHT22;5477;48.806;9.154;2022-10-16T03:42:34;15.90;99.90
10848;DHT22;5477;48.806;9.154;2022-10-16T03:45:02;15.90;99.90
10848;DHT22;5477;48.806;9.154;2022-10-16T03:47:30;15.90;99.90
10848;DHT22;5477;48.806;9.154;2022-10-16T03:49:59;15.80;99.90
10848;DHT22;5477;48.806;9.154;2022-10-16T03:52:28;15.80;99.90
10848;DHT22;5477;48.806;9.154;2022-10-16T03:54:56;15.70;99.90
10848;DHT22;5477;48.806;9.154;2022-10-16T03:57:24;15.70;99.90
10848;DHT22;5477;48.806;9.154;2022-10-16T03:59:53;15.60;99.90
10848;DHT22;5477;48.806;9.154;2022-10-16T04:02:21;15.60;99.90
10848;DHT22;5477;48.806;9.154;2022-10-16T04:04:49;15.60;99.90
10848;DHT22;5477;48.806;9.154;2022-10-16T04:07:16;15.60;99.90
10848;DHT22;5477;48.806;9.154;2022-10-16T04:09:46;15.50;99.90
10848;DHT22;5477;48.806;9.154;2022-10-16T04:12:14;15.50;99.90
10848;DHT22;5477;48.806;9.154;2022-10-16T04:14:41;15.60;99.90
10848;DHT22;5477;48.806;9.154;2022-10-16T04:17:09;15.50;99.90
10848;DHT22;5477;48.806;9.154;2022-10-16T04:19:37;15.50;99.90
10848;DHT22;5477;48.806;9.154;2022-10-16T04:22:05;15.50;99.90
10848;DHT22;5477;48.806;9.154;2022-10-16T04:24:33;15.50;99.90
10848;DHT22;5477;48.806;9.154;2022-10-16T04:27:02;15.50;99.90
10848;DHT22;5477;48.806;9.154;2022-10-16T04:29:30;15.50;99.90
10848;DHT22;5477;48.806;9.154;2022-10-16T04:31:58;15.50;99.90
10848;DHT22;5477;48.806;9.154;2022-10-16T04:34:26;15.50;99.90
10848;DHT22;5477;48.806;9.154;2022-10-16T04:36:54;15.50;99.90
10848;DHT22;5477;48.806;9.154;2022-10-16T04:39:22;15.50;99.90
10848;DHT22;5477;48.806;9.154;2022-10-16T04:41:49;15.50;99.90
10848;DHT22;5477;48.806;9.154;2022-10-16T04:44:19;15.50;99.90
10848;DHT22;5477;48.806;9.154;2022-10-16T04:46:49;15.60;99.90
10848;DHT22;5477;48.806;9.154;2022-10-16T04:49:17;15.60;99.90
10848;DHT22;5477;48.806;9.154;2022-10-16T04:51:46;15.60;99.90
10848;DHT22;5477;48.806;9.154;2022-10-16T04:54:14;15.60;99.90
10848;DHT22;5477;48.806;9.154;2022-10-16T04:56:41;15.60;99.90
10848;DHT22;5477;48.806;9.154;2022-10-16T04:59:14;15.60;99.90
10848;DHT22;5477;48.806;9.154;2022-10-16T05:01:43;15.60;99.90
10848;DHT22;5477;48.806;9.154;2022-10-16T05:04:12;15.50;99.90
10848;DHT22;5477;48.806;9.154;2022-10-16T05:06:41;15.50;99.90
10848;DHT22;5477;48.806;9.154;2022-10-16T05:09:10;15.50;99.90
10848;DHT22;5477;48.806;9.154;2022-10-16T05:11:37;15.50;99.90
10848;DHT22;5477;48.806;9.154;2022-10-16T05:14:05;15.50;99.90
10848;DHT22;5477;48.806;9.154;2022-10-16T05:16:33;15.40;99.90
10848;DHT22;5477;48.806;9.154;2022-10-16T05:19:02;15.40;99.90
10848;DHT22;5477;48.806;9.154;2022-10-16T05:21:50;15.40;99.90
10848;DHT22;5477;48.806;9.154;2022-10-16T05:24:18;15.40;99.90
10848;DHT22;5477;48.806;9.154;2022-10-16T05:26:46;15.40;99.90
10848;DHT22;5477;48.806;9.154;2022-10-16T05:29:14;15.40;99.90
10848;DHT22;5477;48.806;9.154;2022-10-16T05:31:42;15.50;99.90
10848;DHT22;5477;48.806;9.154;2022-10-16T05:34:12;15.50;99.90
10848;DHT22;5477;48.806;9.154;2022-10-16T05:36:40;15.50;99.90
10848;DHT22;5477;48.806;9.154;2022-10-16T05:39:07;15.50;99.90
10848;DHT22;5477;48.806;9.154;2022-10-16T05:41:35;15.40;99.90
10848;DHT22;5477;48.806;9.154;2022-10-16T05:44:04;15.40;99.90
10848;DHT22;5477;48.806;9.154;2022-10-16T05:46:33;15.40;99.90
10848;DHT22;5477;48.806;9.154;2022-10-16T05:49:01;15.40;99.90
10848;DHT22;5477;48.806;9.154;2022-10-16T05:51:30;15.40;99.90
10848;DHT22;5477;48.806;9.154;2022-10-16T05:53:58;15.40;99.90
10848;DHT22;5477;48.806;9.154;2022-10-16T05:56:26;15.40;99.90
10848;DHT22;5477;48.806;9.154;2022-10-16T05:58:54;15.40;99.90
10848;DHT22;5477;48.806;9.154;2022-10-16T06:01:22;15.50;99.90
10848;DHT22;5477;48.806;9.154;2022-10-16T06:03:51;15.50;99.90
10848;DHT22;5477;48.806;9.154;2022-10-16T06:06:20;15.50;99.90
10848;DHT22;5477;48.806;9.154;2022-10-16T06:08:49;15.50;99.90
10848;DHT22;5477;48.806;9.154;2022-10-16T06:11:20;15.60;99.90
10848;DHT22;5477;48.806;9.154;2022-10-16T06:13:49;15.50;99.90
10848;DHT22;5477;48.806;9.154;2022-10-16T06:16:17;15.50;99.90
10848;DHT22;5477;48.806;9.154;2022-10-16T06:18:46;15.50;99.90
10848;DHT22;5477;48.806;9.154;2022-10-16T06:21:16;15.40;99.90
10848;DHT22;5477;48.806;9.154;2022-10-16T06:23:44;15.30;99.90
10848;DHT22;5477;48.806;9.154;2022-10-16T06:26:17;15.30;99.90
10848;DHT22;5477;48.806;9.154;2022-10-16T06:28:46;15.30;99.90
10848;DHT22;5477;48.806;9.154;2022-10-16T06:31:16;15.40;99.90
10848;DHT22;5477;48.806;9.154;2022-10-16T06:33:44;15.30;99.90
10848;DHT22;5477;48.806;9.154;2022-10-16T06:36:16;15.40;99.90
10848;DHT22;5477;48.806;9.154;2022-10-16T06:38:45;15.40;99.90
10848;DHT22;5477;48.806;9.154;2022-10-16T06:41:15;15.40;99.90
10848;DHT22;5477;48.806;9.154;2022-10-16T06:43:44;15.50;99.90
10848;DHT22;5477;48.806;9.154;2022-10-16T06:46:14;15.60;99.90
10848;DHT22;5477;48.806;9.154;2022-10-16T06:48:42;15.60;99.90
10848;DHT22;5477;48.806;9.154;2022-10-16T06:51:12;15.60;99.90
10848;DHT22;5477;48.806;9.154;2022-10-16T06:53:42;15.60;99.90
10848;DHT22;5477;48.806;9.154;2022-10-16T06:56:30;15.70;99.90
10848;DHT22;5477;48.806;9.154;2022-10-16T06:58:59;15.70;99.90
10848;DHT22;5477;48.806;9.154;2022-10-16T07:01:28;15.70;99.90
10848;DHT22;5477;48.806;9.154;2022-10-16T07:03:56;15.70;99.90
10848;DHT22;5477;48.806;9.154;2022-10-16T07:06:25;15.80;99.90
10848;DHT22;5477;48.806;9.154;2022-10-16T07:08:53;15.90;99.90
10848;DHT22;5477;48.806;9.154;2022-10-16T07:11:23;16.00;99.90
10848;DHT22;5477;48.806;9.154;2022-10-16T07:13:52;16.10;99.90
10848;DHT22;5477;48.806;9.154;2022-10-16T07:16:24;16.10;99.90
10848;DHT22;5477;48.806;9.154;2022-10-16T07:18:53;16.10;99.90
10848;DHT22;5477;48.806;9.154;2022-10-16T07:21:27;16.20;99.90
10848;DHT22;5477;48.806;9.154;2022-10-16T07:23:57;16.30;99.90
10848;DHT22;5477;48.806;9.154;2022-10-16T07:26:27;16.20;99.90
10848;DHT22;5477;48.806;9.154;2022-10-16T07:28:57;16.30;99.90
10848;DHT22;5477;48.806;9.154;2022-10-16T07:31:27;16.30;99.90
10848;DHT22;5477;48.806;9.154;2022-10-16T07:33:55;16.30;99.90
10848;DHT22;5477;48.806;9.154;2022-10-16T07:36:25;16.30;99.90
10848;DHT22;5477;48.806;9.154;2022-10-16T07:38:53;16.30;99.90
10848;DHT22;5477;48.806;9.154;2022-10-16T07:41:26;16.30;99.90
10848;DHT22;5477;48.806;9.154;2022-10-16T07:43:55;16.30;99.90
10848;DHT22;5477;48.806;9.154;2022-10-16T07:46:28;16.30;99.90
10848;DHT22;5477;48.806;9.154;2022-10-16T07:48:56;16.40;99.90
10848;DHT22;5477;48.806;9.154;2022-10-16T07:51:26;16.50;99.90
10848;DHT22;5477;48.806;9.154;2022-10-16T07:53:54;16.50;99.90
10848;DHT22;5477;48.806;9.154;2022-10-16T07:56:22;16.60;99.90
10848;DHT22;5477;48.806;9.154;2022-10-16T07:58:51;16.80;99.90
10848;DHT22;5477;48.806;9.154;2022-10-16T08:01:19;16.90;99.90
10848;DHT22;5477;48.806;9.154;2022-10-16T08:03:50;16.90;99.90
10848;DHT22;5477;48.806;9.154;2022-10-16T08:06:19;16.90;99.90
10848;DHT22;5477;48.806;9.154;2022-10-16T08:08:54;17.10;99.90
10848;DHT22;5477;48.806;9.154;2022-10-16T08:11:22;17.10;99.90
10848;DHT22;5477;48.806;9.154;2022-10-16T08:13:50;17.20;99.90
10848;DHT22;5477;48.806;9.154;2022-10-16T08:16:17;17.30;99.90
10848;DHT22;5477;48.806;9.154;2022-10-16T08:18:46;17.40;99.90
10848;DHT22;5477;48.806;9.154;2022-10-16T08:21:16;17.50;99.90
10848;DHT22;5477;48.806;9.154;2022-10-16T08:23:47;17.70;99.90
10848;DHT22;5477;48.806;9.154;2022-10-16T08:26:23;17.80;99.90
10848;DHT22;5477;48.806;9.154;2022-10-16T08:28:51;18.00;99.90
10848;DHT22;5477;48.806;9.154;2022-10-16T08:31:20;18.10;99.90
10848;DHT22;5477;48.806;9.154;2022-10-16T08:33:48;18.30;99.90
10848;DHT22;5477;48.806;9.154;2022-10-16T08:36:18;18.50;99.90
10848;DHT22;5477;48.806;9.154;2022-10-16T08:38:48;18.60;99.90
10848;DHT22;5477;48.806;9.154;2022-10-16T08:42:01;18.60;99.90
10848;DHT22;5477;48.806;9.154;2022-10-16T08:44:52;18.60;99.90
10848;DHT22;5477;48.806;9.154;2022-10-16T08:47:26;18.60;99.90
10848;DHT22;5477;48.806;9.154;2022-10-16T08:50:00;18.60;99.90
10848;DHT22;5477;48.806;9.154;2022-10-16T08:52:34;18.60;99.90
10848;DHT22;5477;48.806;9.154;2022-10-16T08:55:04;18.60;99.90
10848;DHT22;5477;48.806;9.154;2022-10-16T08:57:32;18.60;99.90
10848;DHT22;5477;48.806;9.154;2022-10-16T09:00:08;18.60;99.90
10848;DHT22;5477;48.806;9.154;2022-10-16T09:02:39;18.70;99.90
10848;DHT22;5477;48.806;9.154;2022-10-16T09:05:23;18.70;99.90
10848;DHT22;5477;48.806;9.154;2022-10-16T09:08:05;18.70;99.90
10848;DHT22;5477;48.806;9.154;2022-10-16T09:10:46;18.70;99.90
10848;DHT22;5477;48.806;9.154;2022-10-16T09:13:21;18.70;99.90
10848;DHT22;5477;48.806;9.154;2022-10-16T09:15:58;18.80;99.90
10848;DHT22;5477;48.806;9.154;2022-10-16T09:18:33;18.80;99.90
10848;DHT22;5477;48.806;9.154;2022-10-16T09:21:09;18.90;99.90
10848;DHT22;5477;48.806;9.154;2022-10-16T09:23:42;19.00;99.90
10848;DHT22;5477;48.806;9.154;2022-10-16T09:26:12;19.00;99.90
10848;DHT22;5477;48.806;9.154;2022-10-16T09:28:41;19.10;99.90
10848;DHT22;5477;48.806;9.154;2022-10-16T09:31:15;19.20;99.90
10848;DHT22;5477;48.806;9.154;2022-10-16T09:33:46;19.30;99.90
10848;DHT22;5477;48.806;9.154;2022-10-16T09:36:16;19.30;99.90
10848;DHT22;5477;48.806;9.154;2022-10-16T09:38:45;19.40;99.90
10848;DHT22;5477;48.806;9.154;2022-10-16T09:41:16;19.50;99.90
10848;DHT22;5477;48.806;9.154;2022-10-16T09:43:52;19.60;99.90
10848;DHT22;5477;48.806;9.154;2022-10-16T09:46:29;19.70;99.90
10848;DHT22;5477;48.806;9.154;2022-10-16T09:48:58;19.70;99.90
10848;DHT22;5477;48.806;9.154;2022-10-16T09:51:28;19.80;99.90
10848;DHT22;5477;48.806;9.154;2022-10-16T09:54:00;19.90;99.90
10848;DHT22;5477;48.806;9.154;2022-10-16T09:56:29;20.00;99.90
10848;DHT22;5477;48.806;9.154;2022-10-16T09:59:02;20.30;99.90
10848;DHT22;5477;48.806;9.154;2022-10-16T10:01:37;20.70;99.90
10848;DHT22;5477;48.806;9.154;2022-10-16T10:04:07;20.90;99.90
10848;DHT22;5477;48.806;9.154;2022-10-16T10:06:36;21.10;99.90
10848;DHT22;5477;48.806;9.154;2022-10-16T10:09:16;21.20;99.90
10848;DHT22;5477;48.806;9.154;2022-10-16T10:11:48;21.20;99.90
10848;DHT22;5477;48.806;9.154;2022-10-16T10:14:23;21.30;99.90
10848;DHT22;5477;48.806;9.154;2022-10-16T10:16:52;21.30;99.90
10848;DHT22;5477;48.806;9.154;2022-10-16T10:19:29;21.40;99.90
10848;DHT22;5477;48.806;9.154;2022-10-16T10:21:58;21.30;99.90
10848;DHT22;5477;48.806;9.154;2022-10-16T10:24:28;21.40;99.90
10848;DHT22;5477;48.806;9.154;2022-10-16T10:27:00;21.40;99.90
10848;DHT22;5477;48.806;9.154;2022-10-16T10:29:43;21.40;99.90
10848;DHT22;5477;48.806;9.154;2022-10-16T10:32:23;21.30;99.90
10848;DHT22;5477;48.806;9.154;2022-10-16T10:35:06;21.40;99.90
10848;DHT22;5477;48.806;9.154;2022-10-16T10:37:45;21.70;99.90
10848;DHT22;5477;48.806;9.154;2022-10-16T10:40:27;21.80;99.90
10848;DHT22;5477;48.806;9.154;2022-10-16T10:43:00;22.00;99.90
10848;DHT22;5477;48.806;9.154;2022-10-16T10:45:40;22.10;99.90
10848;DHT22;5477;48.806;9.154;2022-10-16T10:48:21;22.30;99.90
10848;DHT22;5477;48.806;9.154;2022-10-16T10:51:01;22.40;99.90
10848;DHT22;5477;48.806;9.154;2022-10-16T10:53:38;22.60;99.90
10848;DHT22;5477;48.806;9.154;2022-10-16T10:56:23;22.90;99.90
10848;DHT22;5477;48.806;9.154;2022-10-16T10:59:16;23.30;99.90
10848;DHT22;5477;48.806;9.154;2022-10-16T11:01:51;23.60;99.90
10848;DHT22;5477;48.806;9.154;2022-10-16T11:04:46;23.90;99.90
10848;DHT22;5477;48.806;9.154;2022-10-16T11:07:20;24.20;99.90
10848;DHT22;5477;48.806;9.154;2022-10-16T11:09:53;24.20;99.90
10848;DHT22;5477;48.806;9.154;2022-10-16T11:12:25;24.30;99.90
10848;DHT22;5477;48.806;9.154;2022-10-16T11:14:58;24.20;99.90
10848;DHT22;5477;48.806;9.154;2022-10-16T11:17:33;24.30;99.90
10848;DHT22;5477;48.806;9.154;2022-10-16T11:20:11;24.60;99.90
10848;DHT22;5477;48.806;9.154;2022-10-16T11:22:43;24.90;99.90
10848;DHT22;5477;48.806;9.154;2022-10-16T11:25:16;25.20;99.90
10848;DHT22;5477;48.806;9.154;2022-10-16T11:27:51;25.50;99.90
10848;DHT22;5477;48.806;9.154;2022-10-16T11:30:21;25.70;99.90
10848;DHT22;5477;48.806;9.154;2022-10-16T11:33:05;25.60;99.90
10848;DHT22;5477;48.806;9.154;2022-10-16T11:35:41;25.70;99.90
10848;DHT22;5477;48.806;9.154;2022-10-16T11:38:14;25.70;99.90
10848;DHT22;5477;48.806;9.154;2022-10-16T11:40:43;26.00;99.90
10848;DHT22;5477;48.806;9.154;2022-10-16T11:43:19;26.20;99.90
10848;DHT22;5477;48.806;9.154;2022-10-16T11:45:51;26.50;99.90
10848;DHT22;5477;48.806;9.154;2022-10-16T11:48:25;27.00;99.90
10848;DHT22;5477;48.806;9.154;2022-10-16T11:50:58;27.60;99.90
10848;DHT22;5477;48.806;9.154;2022-10-16T11:53:39;27.80;99.90
10848;DHT22;5477;48.806;9.154;2022-10-16T11:56:12;28.00;99.90
10848;DHT22;5477;48.806;9.154;2022-10-16T11:58:50;28.70;99.10
10848;DHT22;5477;48.806;9.154;2022-10-16T12:01:25;29.10;97.70
10848;DHT22;5477;48.806;9.154;2022-10-16T12:04:03;29.50;96.90
10848;DHT22;5477;48.806;9.154;2022-10-16T12:06:36;29.70;96.10
10848;DHT22;5477;48.806;9.154;2022-10-16T12:09:05;29.80;95.90
10848;DHT22;5477;48.806;9.154;2022-10-16T12:11:38;29.80;94.80
10848;DHT22;5477;48.806;9.154;2022-10-16T12:14:20;29.30;95.60
10848;DHT22;5477;48.806;9.154;2022-10-16T12:16:53;28.80;95.90
10848;DHT22;5477;48.806;9.154;2022-10-16T12:19:24;28.30;96.70
10848;DHT22;5477;48.806;9.154;2022-10-16T12:21:55;28.10;96.90
10848;DHT22;5477;48.806;9.154;2022-10-16T12:24:34;27.70;97.40
10848;DHT22;5477;48.806;9.154;2022-10-16T12:27:04;27.40;98.10
10848;DHT22;5477;48.806;9.154;2022-10-16T12:29:36;27.20;98.20
10848;DHT22;5477;48.806;9.154;2022-10-16T12:32:20;26.90;98.60
10848;DHT22;5477;48.806;9.154;2022-10-16T12:35:18;26.50;99.20
10848;DHT22;5477;48.806;9.154;2022-10-16T12:37:47;26.40;99.30
10848;DHT22;5477;48.806;9.154;2022-10-16T12:40:25;26.30;99.90
10848;DHT22;5477;48.806;9.154;2022-10-16T12:42:54;26.50;99.90
10848;DHT22;5477;48.806;9.154;2022-10-16T12:45:29;26.50;99.70
10848;DHT22;5477;48.806;9.154;2022-10-16T12:47:58;26.40;99.30
10848;DHT22;5477;48.806;9.154;2022-10-16T12:50:31;26.10;99.90
10848;DHT22;5477;48.806;9.154;2022-10-16T12:53:00;26.00;99.80
10848;DHT22;5477;48.806;9.154;2022-10-16T12:55:35;25.90;99.90
10848;DHT22;5477;48.806;9.154;2022-10-16T12:58:20;25.80;99.90
10848;DHT22;5477;48.806;9.154;2022-10-16T13:00:56;25.70;99.90
10848;DHT22;5477;48.806;9.154;2022-10-16T13:03:57;25.60;99.90
10848;DHT22;5477;48.806;9.154;2022-10-16T13:06:33;25.40;99.90
10848;DHT22;5477;48.806;9.154;2022-10-16T13:09:21;25.30;99.90
10848;DHT22;5477;48.806;9.154;2022-10-16T13:12:02;25.10;99.90
10848;DHT22;5477;48.806;9.154;2022-10-16T13:14:58;25.00;99.90
10848;DHT22;5477;48.806;9.154;2022-10-16T13:17:37;25.00;99.90
10848;DHT22;5477;48.806;9.154;2022-10-16T13:20:16;24.90;99.90
10848;DHT22;5477;48.806;9.154;2022-10-16T13:22:51;24.90;99.90
10848;DHT22;5477;48.806;9.154;2022-10-16T13:25:28;24.90;99.90
10848;DHT22;5477;48.806;9.154;2022-10-16T13:28:01;25.00;99.90
10848;DHT22;5477;48.806;9.154;2022-10-16T13:30:31;25.10;99.90
10848;DHT22;5477;48.806;9.154;2022-10-16T13:33:03;25.00;99.90
10848;DHT22;5477;48.806;9.154;2022-10-16T13:35:33;24.90;99.90
10848;DHT22;5477;48.806;9.154;2022-10-16T13:38:13;24.80;99.90
10848;DHT22;5477;48.806;9.154;2022-10-16T13:40:53;24.70;99.90
10848;DHT22;5477;48.806;9.154;2022-10-16T13:43:24;24.70;99.90
10848;DHT22;5477;48.806;9.154;2022-10-16T13:45:59;24.80;99.90
10848;DHT22;5477;48.806;9.154;2022-10-16T13:48:29;24.70;99.90
10848;DHT22;5477;48.806;9.154;2022-10-16T13:51:01;24.60;99.90
10848;DHT22;5477;48.806;9.154;2022-10-16T13:53:31;24.60;99.90
10848;DHT22;5477;48.806;9.154;2022-10-16T13:56:03;24.60;99.90
10848;DHT22;5477;48.806;9.154;2022-10-16T13:58:32;24.70;99.90
10848;DHT22;5477;48.806;9.154;2022-10-16T14:01:01;24.80;99.90
10848;DHT22;5477;48.806;9.154;2022-10-16T14:03:32;24.90;99.90
10848;DHT22;5477;48.806;9.154;2022-10-16T14:06:03;24.80;99.90
10848;DHT22;5477;48.806;9.154;2022-10-16T14:08:35;24.70;99.90
10848;DHT22;5477;48.806;9.154;2022-10-16T14:11:03;24.60;99.90
10848;DHT22;5477;48.806;9.154;2022-10-16T14:13:34;24.50;99.90
10848;DHT22;5477;48.806;9.154;2022-10-16T14:16:07;24.50;99.90
10848;DHT22;5477;48.806;9.154;2022-10-16T14:18:38;24.40;99.90
10848;DHT22;5477;48.806;9.154;2022-10-16T14:21:12;24.50;99.90
10848;DHT22;5477;48.806;9.154;2022-10-16T14:23:41;24.40;99.90
10848;DHT22;5477;48.806;9.154;2022-10-16T14:26:15;24.20;99.90
10848;DHT22;5477;48.806;9.154;2022-10-16T14:28:44;24.20;99.90
10848;DHT22;5477;48.806;9.154;2022-10-16T14:31:37;24.10;99.90
10848;DHT22;5477;48.806;9.154;2022-10-16T14:34:26;23.90;99.90
10848;DHT22;5477;48.806;9.154;2022-10-16T14:36:54;23.80;99.90
10848;DHT22;5477;48.806;9.154;2022-10-16T14:39:24;23.70;99.90
10848;DHT22;5477;48.806;9.154;2022-10-16T14:41:56;23.70;99.90
10848;DHT22;5477;48.806;9.154;2022-10-16T14:44:29;23.60;99.90
10848;DHT22;5477;48.806;9.154;2022-10-16T14:47:07;23.50;99.90
10848;DHT22;5477;48.806;9.154;2022-10-16T14:49:37;23.50;99.90
10848;DHT22;5477;48.806;9.154;2022-10-16T14:52:09;23.50;99.90
10848;DHT22;5477;48.806;9.154;2022-10-16T14:54:38;23.50;99.90
10848;DHT22;5477;48.806;9.154;2022-10-16T14:57:15;23.50;99.90
10848;DHT22;5477;48.806;9.154;2022-10-16T14:59:44;23.50;99.90
10848;DHT22;5477;48.806;9.154;2022-10-16T15:02:19;23.40;99.90
10848;DHT22;5477;48.806;9.154;2022-10-16T15:04:50;23.40;99.90
10848;DHT22;5477;48.806;9.154;2022-10-16T15:07:18;23.30;99.90
10848;DHT22;5477;48.806;9.154;2022-10-16T15:09:47;23.30;99.90
10848;DHT22;5477;48.806;9.154;2022-10-16T15:12:15;23.30;99.90
10848;DHT22;5477;48.806;9.154;2022-10-16T15:14:43;23.30;99.90
10848;DHT22;5477;48.806;9.154;2022-10-16T15:17:11;23.20;99.90
10848;DHT22;5477;48.806;9.154;2022-10-16T15:19:44;23.20;99.90
10848;DHT22;5477;48.806;9.154;2022-10-16T15:22:13;23.20;99.90
10848;DHT22;5477;48.806;9.154;2022-10-16T15:24:41;23.20;99.90
10848;DHT22;5477;48.806;9.154;2022-10-16T15:27:09;23.30;99.90
10848;DHT22;5477;48.806;9.154;2022-10-16T15:29:37;23.20;99.90
10848;DHT22;5477;48.806;9.154;2022-10-16T15:32:05;23.10;99.90
10848;DHT22;5477;48.806;9.154;2022-10-16T15:34:33;23.00;99.90
10848;DHT22;5477;48.806;9.154;2022-10-16T15:37:02;23.00;99.90
10848;DHT22;5477;48.806;9.154;2022-10-16T15:39:32;22.90;99.90
10848;DHT22;5477;48.806;9.154;2022-10-16T15:42:06;22.90;99.90
10848;DHT22;5477;48.806;9.154;2022-10-16T15:44:35;22.90;99.90
10848;DHT22;5477;48.806;9.154;2022-10-16T15:47:03;22.80;99.90
10848;DHT22;5477;48.806;9.154;2022-10-16T15:49:31;22.70;99.90
10848;DHT22;5477;48.806;9.154;2022-10-16T15:51:58;22.70;99.90
10848;DHT22;5477;48.806;9.154;2022-10-16T15:54:26;22.60;99.90
10848;DHT22;5477;48.806;9.154;2022-10-16T15:56:56;22.40;99.90
10848;DHT22;5477;48.806;9.154;2022-10-16T15:59:23;22.30;99.90
10848;DHT22;5477;48.806;9.154;2022-10-16T16:01:51;22.10;99.90
10848;DHT22;5477;48.806;9.154;2022-10-16T16:04:19;21.90;99.90
10848;DHT22;5477;48.806;9.154;2022-10-16T16:07:07;21.70;99.90
10848;DHT22;5477;48.806;9.154;2022-10-16T16:09:35;21.50;99.90
10848;DHT22;5477;48.806;9.154;2022-10-16T16:12:05;21.50;99.90
10848;DHT22;5477;48.806;9.154;2022-10-16T16:14:33;21.50;99.90
10848;DHT22;5477;48.806;9.154;2022-10-16T16:17:01;21.40;99.90